Latest Coastal Weather Observations for Weipa

IDQ60701

Issued at 3:05 am EST Sunday 27 July 2014 (issued every 10 minutes, with the page automatically refreshed every 10 minutes)

About coastal observations | Map of coastal stations | Coastal observations for QLD | Marine services | Other Formats
Station Details ID: 027045 Name: WEIPA AERO Lat: -12.68 Lon: 141.92 Height: 17.96 m
Data from the previous 72 hours. | See also: Recent months at Weipa
Date/Time
EST
Temp

°C
Wind Pressure Rain
since 9am
mm
Weather Cloud Vis
km
Sea
Height
m
Swell
Dir
 
Speed
knots
Gust
knots
hPa Trend Height
m
Period
s
Dir
27/03:00am 21.2 SE 5 8 1015.8 - 0.0 - - 10 - - - -
27/02:30am 21.5 SE 5 7 1016.1 - 0.0 - - 10 - - - -
27/02:00am 22.0 SE 7 10 1016.6 - 0.0 - - 10 - - - -
27/01:30am 22.2 SE 6 11 1017.0 - 0.0 - - 10 - - - -
27/01:00am 22.1 SE 8 12 1017.1 - 0.0 - - 10 - - - -
27/12:30am 22.0 SE 5 7 1017.3 - 0.0 - - 10 - - - -
27/12:00am 22.4 SE 7 10 1017.4 - 0.0 - - 10 - - - -
 
Date/Time
EST
Temp

°C
Wind Pressure Rain
since 9am
mm
Weather Cloud Vis
km
Sea
Height
m
Swell
Dir
 
Speed
knots
Gust
knots
hPa Trend Height
m
Period
s
Dir
26/11:30pm 22.8 SE 8 10 1018.0 - 0.0 - - 10 - - - -
26/11:00pm 22.8 SE 6 10 1018.0 - 0.0 - - 10 - - - -
26/10:30pm 23.0 SE 6 9 1017.9 - 0.0 - - 10 - - - -
26/10:00pm 23.4 SE 7 11 1017.8 - 0.0 - - 10 - - - -
26/09:30pm 23.4 SE 4 6 1017.9 - 0.0 - - 10 - - - -
26/09:00pm 24.2 ESE 6 8 1017.7 - 0.0 - - 10 - - - -
26/08:30pm 24.8 ESE 6 10 1017.8 - 0.0 - - 10 - - - -
26/08:00pm 25.2 ESE 8 12 1017.5 - 0.0 - - 10 - - - -
26/07:30pm 25.9 ESE 11 16 1017.0 - 0.0 - - 10 - - - -
26/07:00pm 26.7 ESE 11 17 1016.5 - 0.0 - Partly cloudy 10 - - - -
26/06:30pm 27.5 E 11 18 1016.1 - 0.0 - Cloudy 10 - - - -
26/06:00pm 28.2 ESE 10 17 1015.6 - 0.0 - Mostly cloudy 10 - - - -
26/05:30pm 28.8 ESE 15 22 1015.3 - 0.0 - Partly cloudy 10 - - - -
26/05:00pm 29.4 E 12 18 1015.0 - 0.0 - - 10 - - - -
26/04:30pm 30.0 E 14 23 1014.8 - 0.0 - Partly cloudy 10 - - - -
26/04:00pm 30.1 ESE 14 23 1014.5 - 0.0 - Partly cloudy 10 - - - -
26/03:30pm 30.4 ESE 14 19 1014.2 - 0.0 - Partly cloudy 10 - - - -
26/03:00pm 30.9 E 15 22 1014.1 F 0.0 Haze Partly cloudy 25 - - - -
26/02:30pm 30.6 ESE 16 23 1014.3 - 0.0 - Partly cloudy 10 - - - -
26/02:00pm 30.5 ESE 15 22 1014.7 - 0.0 - Partly cloudy 10 - - - -
26/01:30pm 31.0 E 15 23 1015.2 - 0.0 - Partly cloudy 10 - - - -
26/01:00pm 30.0 E 14 20 1015.6 - 0.0 - Partly cloudy 10 - - - -
26/12:30pm 29.6 SE 15 20 1016.1 - 0.0 - Partly cloudy 10 - - - -
26/12:00pm 29.5 ESE 15 21 1016.5 - 0.0 - - 10 - - - -
26/11:30am 28.5 E 15 21 1017.2 - 0.0 - Partly cloudy 10 - - - -
26/11:00am 27.6 ESE 15 21 1017.6 - 0.0 - - 10 - - - -
26/10:30am 27.1 ESE 15 22 1017.7 - 0.0 - - 10 - - - -
26/10:00am 26.1 ESE 14 20 1017.7 - 0.0 - - 10 - - - -
26/09:30am 25.2 ESE 13 16 1017.8 - 0.0 - - 10 - - - -
26/09:00am 24.0 SE 12 17 1017.9 F 0.0 Haze Mostly clear 30 - - - -
26/08:30am 23.3 ESE 14 21 1017.8 - 0.0 - - 10 - - - -
26/08:00am 22.4 ESE 11 16 1017.6 - 0.0 - - 10 - - - -
26/07:30am 21.5 SE 8 13 1017.6 - 0.0 - - 10 - - - -
26/07:00am 20.7 SE 7 10 1017.4 - 0.0 - - 10 - - - -
26/06:30am 20.5 SE 6 10 1017.3 - 0.0 - - 10 - - - -
26/06:00am 20.5 SSE 5 9 1017.2 S 0.0 Fine Mostly clear 35 - - - -
26/05:30am 20.6 SSE 4 7 1017.0 - 0.0 - - 10 - - - -
26/05:00am 20.8 SE 5 7 1017.0 - 0.0 - - 10 - - - -
26/04:30am 21.0 SSE 4 7 1016.9 - 0.0 - - 10 - - - -
26/04:00am 21.3 SSE 4 6 1016.8 - 0.0 - - 10 - - - -
26/03:30am 21.5 SSE 4 7 1016.9 - 0.0 - - 10 - - - -
26/03:00am 21.8 SE 5 8 1016.9 - 0.0 - - 10 - - - -
26/02:30am 21.7 SE 6 9 1017.0 - 0.0 - - 10 - - - -
26/02:00am 21.9 ESE 7 10 1017.3 - 0.0 - - 10 - - - -
26/01:30am 22.3 ESE 7 10 1017.4 - 0.0 - Cloudy 10 - - - -
26/01:00am 22.4 ESE 5 8 1017.8 - 0.0 - Partly cloudy 10 - - - -
26/12:30am 22.6 ESE 6 8 1017.8 - 0.0 - Partly cloudy 10 - - - -
26/12:00am 22.7 ESE 5 7 1017.9 - 0.0 - Mostly clear 10 - - - -
 
Date/Time
EST
Temp

°C
Wind Pressure Rain
since 9am
mm
Weather Cloud Vis
km
Sea
Height
m
Swell
Dir
 
Speed
knots
Gust
knots
hPa Trend Height
m
Period
s
Dir
25/11:30pm 22.8 ESE 5 7 1018.1 - 0.0 - - 10 - - - -
25/11:00pm 23.0 SE 7 9 1018.0 - 0.0 - - 10 - - - -
25/10:30pm 23.4 ESE 7 10 1017.9 - 0.0 - - 10 - - - -
25/10:00pm 23.8 ESE 11 17 1017.9 - 0.0 - - 10 - - - -
25/09:30pm 23.9 ESE 7 12 1017.9 - 0.0 - - 10 - - - -
25/09:00pm 24.3 E 10 15 1017.6 - 0.0 - - 10 - - - -
25/08:30pm 24.3 E 7 10 1017.2 - 0.0 - - 10 - - - -
25/08:00pm 24.7 E 6 9 1016.9 - 0.0 - Cloudy 10 - - - -
25/07:30pm 25.0 E 5 8 1016.5 - 0.0 - Partly cloudy 10 - - - -
25/07:00pm 25.2 E 7 11 1015.9 - 0.0 - Partly cloudy 10 - - - -
25/06:30pm 25.5 E 11 18 1015.6 - 0.0 - Partly cloudy 10 - - - -
25/06:00pm 27.3 E 10 22 1014.9 - 0.0 - Cloudy 10 - - - -
25/05:30pm 29.1 E 9 13 1014.4 - 0.0 - Partly cloudy 10 - - - -
25/05:00pm 29.5 E 11 16 1014.0 - 0.0 - Partly cloudy 10 - - - -
25/04:30pm 30.4 E 11 16 1013.7 - 0.0 - - 10 - - - -
25/04:00pm 30.9 E 9 16 1013.7 - 0.0 - - 10 - - - -
25/03:30pm 30.4 ENE 10 16 1013.6 - 0.0 - Partly cloudy 10 - - - -
25/03:00pm 31.1 ENE 11 15 1013.5 F 0.0 Smoke Mostly cloudy 20 - - - -
25/02:30pm 31.8 ENE 12 17 1014.0 - 0.0 - Partly cloudy 10 - - - -
25/02:00pm 30.1 E 11 16 1014.5 - 0.0 - Partly cloudy 10 - - - -
25/01:30pm 30.8 ENE 11 16 1015.0 - 0.0 - Partly cloudy 10 - - - -
25/01:00pm 29.1 E 11 16 1015.6 - 0.0 - Partly cloudy 10 - - - -
25/12:30pm 28.3 E 11 17 1016.0 - 0.0 - Partly cloudy 10 - - - -
25/12:00pm 29.1 E 11 17 1016.3 - 0.0 - Partly cloudy 10 - - - -
25/11:30am 28.5 ENE 13 21 1016.6 - 0.0 - Partly cloudy 10 - - - -
25/11:00am 27.8 E 13 19 1016.7 - 0.0 - - 10 - - - -
25/10:30am 27.0 E 12 18 1016.9 - 0.0 - - 10 - - - -
25/10:00am 25.6 E 13 17 1017.2 - 0.0 - - 10 - - - -
25/09:30am 24.8 ESE 11 17 1017.3 - 0.0 - - 10 - - - -
25/09:00am 23.8 ESE 12 16 1017.0 R 0.0 Fine Mostly clear 35 - - - -
25/08:30am 22.7 ESE 12 17 1017.0 - 0.0 - - 10 - - - -
25/08:00am 21.2 ESE 7 9 1016.6 - 0.0 - - 10 - - - -
25/07:30am 20.1 SE 6 7 1016.5 - 0.0 - - 10 - - - -
25/07:00am 20.1 SE 5 7 1016.2 - 0.0 - - 10 - - - -
25/06:30am 20.2 SE 4 7 1015.9 - 0.0 - - 10 - - - -
25/06:00am 20.5 SSE 5 7 1015.5 R 0.0 Shallow fog Partly cloudy 30 - - - -
25/05:30am 20.6 SE 5 7 1015.2 - 0.0 - - 10 - - - -
25/05:00am 20.9 SE 4 8 1015.1 - 0.0 - - 10 - - - -
25/04:30am 21.0 SE 4 8 1015.1 - 0.0 - - 10 - - - -
25/04:00am 21.1 SE 6 10 1015.1 - 0.0 - - 10 - - - -
25/03:30am 20.9 SE 6 9 1015.0 - 0.0 - - 10 - - - -
25/03:00am 20.9 SE 5 7 1015.0 - 0.0 - - 10 - - - -
25/02:30am 21.0 SE 4 7 1015.4 - 0.0 - - 10 - - - -
25/02:00am 21.2 SE 5 7 1015.5 - 0.0 - - 10 - - - -
25/01:30am 21.5 ESE 5 8 1015.5 - 0.0 - - 10 - - - -
25/01:00am 21.6 ESE 6 8 1015.8 - 0.0 - - 10 - - - -
25/12:30am 21.8 ESE 5 6 1015.9 - 0.0 - - 10 - - - -
25/12:00am 21.9 ESE 5 7 1015.8 - 0.0 - - 10 - - - -
 
Date/Time
EST
Temp

°C
Wind Pressure Rain
since 9am
mm
Weather Cloud Vis
km
Sea
Height
m
Swell
Dir
 
Speed
knots
Gust
knots
hPa Trend Height
m
Period
s
Dir
24/11:30pm 22.1 ESE 4 6 1016.0 - 0.0 - - 10 - - - -
24/11:00pm 22.5 ESE 7 11 1016.0 - 0.0 - - 10 - - - -
24/10:30pm 22.9 ESE 7 10 1016.0 - 0.0 - - 10 - - - -
24/10:00pm 23.3 E 8 11 1016.1 - 0.0 - - 10 - - - -
24/09:30pm 23.7 E 8 10 1015.8 - 0.0 - - 10 - - - -
24/09:00pm 24.1 ESE 7 11 1015.4 - 0.0 - - 10 - - - -
24/08:30pm 24.3 ESE 8 13 1015.1 - 0.0 - - 10 - - - -
24/08:00pm 24.5 E 10 14 1014.8 - 0.0 - - 10 - - - -
24/07:30pm 24.7 E 9 13 1014.4 - 0.0 - - 10 - - - -
24/07:00pm 24.8 ESE 10 15 1013.9 - 0.0 - - 10 - - - -
24/06:30pm 25.1 ESE 11 15 1013.5 - 0.0 - - 10 - - - -
24/06:00pm 25.6 ESE 10 14 1013.0 - 0.0 - - 10 - - - -
24/05:30pm 26.5 ESE 13 20 1012.7 - 0.0 - - 10 - - - -
24/05:00pm 27.0 E 12 18 1012.5 - 0.0 - - 10 - - - -
24/04:30pm 27.5 E 15 22 1012.3 - 0.0 - Partly cloudy 10 - - - -
24/04:00pm 28.4 ESE 15 23 1012.0 - 0.0 - Partly cloudy 10 - - - -
24/03:30pm 29.3 E 13 17 1012.0 - 0.0 - Partly cloudy 10 - - - -
24/03:00pm 29.9 E 10 12 1011.9 F 0.0 Haze Partly cloudy 25 - - - -
24/02:30pm 29.0 E 9 15 1012.3 - 0.0 - Partly cloudy 10 - - - -
24/02:00pm 28.7 E 10 16 1012.6 - 0.0 - Mostly clear 10 - - - -
24/01:30pm 28.9 E 8 14 1013.2 - 0.0 - Partly cloudy 10 - - - -
24/01:00pm 29.3 E 9 16 1013.6 - 0.0 - Mostly clear 10 - - - -
24/12:30pm 28.5 ESE 13 21 1014.0 - 0.0 - Partly cloudy 10 - - - -
24/12:00pm 28.7 E 13 18 1014.2 F 0.0 Haze Mostly cloudy 25 - - - -
24/11:30am 28.0 E 13 20 1014.8 - 0.0 - - 10 - - - -
24/11:00am 27.0 E 15 21 1015.2 - 0.0 - Mostly clear 10 - - - -
24/10:30am 26.0 E 13 21 1015.5 - 0.0 - - 10 - - - -
24/10:00am 25.0 ESE 11 15 1015.8 - 0.0 - Mostly clear 10 - - - -
24/09:30am 24.4 ESE 9 13 1016.0 - 0.0 - - 10 - - - -
24/09:00am 23.7 ESE 9 13 1015.7 R 0.0 Fine Mostly clear 30 - - - -
24/08:30am 22.4 ESE 7 10 1015.5 - 0.0 - - 10 - - - -
24/08:00am 20.5 SSE 3 5 1014.9 - 0.0 - Mostly clear 10 - - - -
24/07:30am 19.0 SSE 2 3 1014.6 - 0.0 - - 10 - - - -
24/07:00am 18.1 S 3 3 1014.3 - 0.0 - Mostly clear 10 - - - -
24/06:30am 18.0 SE 1 3 1014.1 - 0.0 - Partly cloudy 10 - - - -
24/06:00am 18.2 S 3 4 1013.8 S 0.0 Fine Mostly clear 25 - - - -
24/05:30am 18.4 S 4 5 1013.5 - 0.0 - - 10 - - - -
24/05:00am 18.5 S 2 4 1013.4 - 0.0 - Partly cloudy 10 - - - -
24/04:30am 18.2 S 2 3 1013.4 - 0.0 - - 10 - - - -
24/04:00am 17.8 CALM 0 1 1013.4 - 0.0 - - 10 - - - -
24/03:30am 18.2 CALM 0 3 1013.5 - 0.0 - - 10 - - - -

Other Formats:

Comma delimited format used in spreadsheet applications
http://www.bom.gov.au/fwo/IDQ60701/IDQ60701.94170.axf

JavaScript Object Notation format (JSON) in row-major order
http://www.bom.gov.au/fwo/IDQ60701/IDQ60701.94170.json